createdAt,value
2023-03-26T00:00:43.795Z,0.40
2023-03-26T00:05:48.249Z,0.67
2023-03-26T00:10:51.789Z,0.30
2023-03-26T00:15:56.570Z,1.27
2023-03-26T00:21:00.551Z,0.63
2023-03-26T00:26:05.410Z,0.30
2023-03-26T00:31:12.620Z,0.30
2023-03-26T00:36:20.158Z,0.40
2023-03-26T00:41:27.157Z,0.40
2023-03-26T00:46:32.719Z,0.60
2023-03-26T00:51:37.386Z,0.60
2023-03-26T00:56:40.849Z,0.50
2023-03-26T01:01:45.568Z,0.60
2023-03-26T01:06:48.807Z,0.63
2023-03-26T01:11:52.376Z,0.70
2023-03-26T01:16:58.975Z,0.93
2023-03-26T01:22:02.752Z,0.53
2023-03-26T01:27:24.401Z,0.70
2023-03-26T01:32:47.967Z,0.93
2023-03-26T01:38:10.809Z,1.23
2023-03-26T01:43:26.732Z,0.70
2023-03-26T01:48:32.620Z,1.03
2023-03-26T01:53:40.646Z,1.00
2023-03-26T01:58:56.752Z,1.40
2023-03-26T02:04:08.016Z,0.87
2023-03-26T02:09:15.607Z,1.47
2023-03-26T02:14:20.455Z,0.67
2023-03-26T02:19:24.695Z,1.20
2023-03-26T02:24:28.041Z,0.70
2023-03-26T02:29:37.872Z,1.17
2023-03-26T02:34:42.371Z,0.90
2023-03-26T02:39:46.554Z,1.13
2023-03-26T02:45:01.799Z,1.07
2023-03-26T02:50:24.109Z,1.50
2023-03-26T02:55:47.572Z,0.93
2023-03-26T03:00:54.966Z,2.20
2023-03-26T03:06:05.173Z,1.30
2023-03-26T03:11:18.579Z,1.03
2023-03-26T03:16:24.998Z,1.07
2023-03-26T03:21:29.884Z,1.00
2023-03-26T03:26:34.228Z,0.73
2023-03-26T03:31:50.657Z,0.80
2023-03-26T03:37:14.926Z,1.17
2023-03-26T03:42:25.426Z,1.10
2023-03-26T03:47:32.935Z,1.20
2023-03-26T03:52:36.304Z,2.00
2023-03-26T03:57:41.538Z,1.33
2023-03-26T04:02:54.370Z,2.60
2023-03-26T04:08:00.069Z,0.83
2023-03-26T04:13:03.334Z,1.20
2023-03-26T04:18:37.585Z,1.13
2023-03-26T04:23:48.483Z,0.90
2023-03-26T04:29:24.068Z,1.37
2023-03-26T04:34:31.162Z,0.80
2023-03-26T04:39:47.409Z,1.03
2023-03-26T04:45:14.530Z,1.20
2023-03-26T04:50:22.538Z,0.67
2023-03-26T04:55:32.312Z,0.90
2023-03-26T05:00:45.236Z,0.87
2023-03-26T05:05:50.702Z,1.27
2023-03-26T05:10:54.358Z,0.87
2023-03-26T05:16:06.665Z,1.30
2023-03-26T05:21:15.689Z,0.97
2023-03-26T05:26:20.101Z,0.83
2023-03-26T05:31:24.411Z,1.07
2023-03-26T05:36:33.186Z,0.80
2023-03-26T05:41:59.220Z,1.23
2023-03-26T05:47:11.436Z,1.63
2023-03-26T05:52:18.980Z,1.00
2023-03-26T05:57:42.030Z,1.60
2023-03-26T06:03:03.259Z,1.83
2023-03-26T06:08:31.345Z,1.70
2023-03-26T06:13:34.586Z,1.27
2023-03-26T06:18:38.509Z,1.80
2023-03-26T06:24:01.756Z,1.50
2023-03-26T06:29:15.461Z,1.30
2023-03-26T06:34:41.978Z,1.50
2023-03-26T06:39:46.741Z,2.80
2023-03-26T06:44:53.198Z,1.23
2023-03-26T06:49:56.473Z,1.40
2023-03-26T06:55:14.224Z,1.17
2023-03-26T07:00:43.937Z,1.40
2023-03-26T07:06:06.696Z,1.43
2023-03-26T07:11:30.000Z,1.63
2023-03-26T07:16:51.772Z,0.97
2023-03-26T07:22:16.261Z,1.37
2023-03-26T07:27:48.007Z,1.67
2023-03-26T07:33:03.250Z,1.20
2023-03-26T07:38:30.139Z,1.37
2023-03-26T07:44:19.998Z,1.50
2023-03-26T07:49:33.017Z,1.63
2023-03-26T07:54:54.757Z,1.03
2023-03-26T08:00:36.125Z,1.10
2023-03-26T08:05:49.296Z,1.50
2023-03-26T08:11:16.134Z,1.37
2023-03-26T08:16:36.611Z,1.63
2023-03-26T08:21:45.746Z,1.27
2023-03-26T08:26:58.888Z,1.00
2023-03-26T08:32:06.321Z,1.23
2023-03-26T08:37:10.071Z,1.37
2023-03-26T08:43:02.544Z,1.20
2023-03-26T08:48:31.553Z,3.30
2023-03-26T08:53:54.545Z,1.00
2023-03-26T08:59:26.108Z,1.40
2023-03-26T09:05:21.653Z,0.80
2023-03-26T09:10:54.471Z,1.47
2023-03-26T09:16:33.618Z,2.23
2023-03-26T09:22:02.118Z,3.17
2023-03-26T09:27:31.852Z,3.23
2023-03-26T09:33:01.848Z,2.70
2023-03-26T09:38:18.287Z,1.27
2023-03-26T09:44:03.299Z,2.43
2023-03-26T09:49:22.858Z,3.07
2023-03-26T09:55:08.498Z,1.73
2023-03-26T10:00:25.964Z,1.77
2023-03-26T10:05:42.904Z,1.10
2023-03-26T10:10:54.581Z,1.30
2023-03-26T10:16:18.315Z,1.47
2023-03-26T10:21:32.199Z,1.00
2023-03-26T10:27:10.004Z,1.20
2023-03-26T10:32:28.022Z,1.17
2023-03-26T10:37:42.568Z,1.03
2023-03-26T10:43:08.801Z,1.23
2023-03-26T10:48:41.992Z,1.20
2023-03-26T10:53:51.206Z,1.07
2023-03-26T10:58:58.348Z,1.20
2023-03-26T11:04:11.112Z,0.70
2023-03-26T11:09:29.674Z,0.70
2023-03-26T11:14:40.138Z,1.70
2023-03-26T11:19:52.002Z,1.10
2023-03-26T11:25:13.303Z,1.40
2023-03-26T11:30:26.578Z,1.20
2023-03-26T11:35:40.448Z,0.77
2023-03-26T11:40:52.061Z,1.67
2023-03-26T11:46:12.944Z,0.50
2023-03-26T11:51:21.924Z,0.77
2023-03-26T11:56:31.276Z,0.50
2023-03-26T12:01:51.724Z,0.30
2023-03-26T12:06:57.690Z,0.50
2023-03-26T12:12:04.913Z,0.30
2023-03-26T12:17:15.673Z,0.30
2023-03-26T12:22:31.163Z,0.20
2023-03-26T12:27:34.638Z,0.30
2023-03-26T12:32:46.849Z,0.27
2023-03-26T12:37:52.020Z,0.30
2023-03-26T12:44:46.871Z,0.30
2023-03-26T12:48:25.929Z,0.30
2023-03-26T12:53:43.096Z,0.20
2023-03-26T12:59:07.216Z,0.20
2023-03-26T13:04:35.319Z,0.83
2023-03-26T13:09:46.657Z,0.20
2023-03-26T13:15:03.087Z,3.13
2023-03-26T13:20:16.416Z,0.30
2023-03-26T13:25:29.257Z,0.40
2023-03-26T13:30:39.695Z,0.30
2023-03-26T13:36:06.507Z,0.50
2023-03-26T13:41:26.413Z,0.20
2023-03-26T13:46:33.512Z,0.30
2023-03-26T13:51:43.585Z,0.30
2023-03-26T13:56:52.359Z,0.60
2023-03-26T14:01:59.985Z,0.50
2023-03-26T14:07:12.347Z,0.30
2023-03-26T14:12:28.928Z,0.40
2023-03-26T14:17:40.579Z,0.43
2023-03-26T14:23:00.144Z,0.50
2023-03-26T14:28:16.826Z,0.43
2023-03-26T14:33:48.171Z,0.30
2023-03-26T14:39:27.876Z,0.40
2023-03-26T14:45:02.721Z,0.57
2023-03-26T14:50:42.912Z,0.47
2023-03-26T14:56:05.528Z,0.80
2023-03-26T15:01:27.836Z,0.60
2023-03-26T15:07:07.504Z,0.47
2023-03-26T15:12:25.934Z,0.67
2023-03-26T15:18:06.329Z,0.57
2023-03-26T15:23:51.378Z,0.40
2023-03-26T15:29:22.679Z,0.73
2023-03-26T15:35:00.332Z,0.40
2023-03-26T15:40:31.918Z,0.50
2023-03-26T15:45:41.457Z,0.60
2023-03-26T15:50:55.927Z,0.50
2023-03-26T15:56:16.151Z,0.60
2023-03-26T16:01:34.077Z,0.70
2023-03-26T16:06:51.753Z,0.50
2023-03-26T16:11:58.479Z,0.43
2023-03-26T16:17:06.522Z,0.50
2023-03-26T16:22:16.325Z,0.47
2023-03-26T16:27:33.573Z,0.40
2023-03-26T16:32:42.816Z,0.60
2023-03-26T16:37:50.766Z,0.53
2023-03-26T16:43:00.109Z,0.70
2023-03-26T16:48:19.012Z,0.60
2023-03-26T16:53:30.523Z,0.60
2023-03-26T16:58:46.057Z,0.83
2023-03-26T17:03:57.694Z,0.40
2023-03-26T17:09:10.635Z,0.50
2023-03-26T17:14:29.630Z,0.50
2023-03-26T17:19:40.685Z,0.40
2023-03-26T17:24:49.425Z,0.47
2023-03-26T17:30:35.571Z,0.50
2023-03-26T17:35:43.758Z,1.57
2023-03-26T17:40:54.592Z,0.50
2023-03-26T17:46:02.742Z,0.33
2023-03-26T17:51:26.230Z,0.40
2023-03-26T17:56:33.224Z,0.30
2023-03-26T18:01:39.465Z,0.30
2023-03-26T18:06:59.107Z,0.20
2023-03-26T18:12:26.081Z,0.93
2023-03-26T18:17:40.400Z,0.50
2023-03-26T18:22:47.022Z,0.77
2023-03-26T18:27:51.531Z,0.90
2023-03-26T18:33:01.162Z,0.87
2023-03-26T18:38:06.286Z,1.17
2023-03-26T18:43:25.427Z,0.73
2023-03-26T18:48:37.432Z,0.47
2023-03-26T18:53:47.713Z,0.50
2023-03-26T18:58:57.715Z,0.30
2023-03-26T19:04:04.125Z,0.40
2023-03-26T19:09:24.281Z,0.60
2023-03-26T19:14:36.953Z,0.40
2023-03-26T19:19:40.581Z,0.80
2023-03-26T19:24:45.415Z,1.33
2023-03-26T19:29:48.825Z,0.90
2023-03-26T19:34:53.541Z,0.20
2023-03-26T19:40:06.961Z,0.30
2023-03-26T19:45:17.436Z,0.30
2023-03-26T19:50:26.118Z,0.30
2023-03-26T19:55:31.472Z,0.20
2023-03-26T20:00:34.904Z,0.23
2023-03-26T20:05:39.932Z,0.20
2023-03-26T20:10:45.635Z,0.20
2023-03-26T20:16:05.142Z,0.20
2023-03-26T20:21:12.342Z,0.40
2023-03-26T20:26:18.805Z,0.23
2023-03-26T20:31:25.182Z,0.20
2023-03-26T20:36:33.438Z,0.30
2023-03-26T20:41:47.276Z,0.40
2023-03-26T20:46:52.661Z,0.20
2023-03-26T20:51:57.576Z,0.20
2023-03-26T20:57:02.723Z,0.20
2023-03-26T21:02:06.280Z,0.20
2023-03-26T21:07:17.844Z,0.20
2023-03-26T21:12:30.821Z,0.20
2023-03-26T21:17:34.585Z,0.20
2023-03-26T21:22:44.833Z,0.20
2023-03-26T21:27:59.527Z,0.20
2023-03-26T21:33:05.445Z,0.43
2023-03-26T21:38:09.432Z,0.43
2023-03-26T21:43:14.494Z,0.40
2023-03-26T21:48:18.394Z,0.60
2023-03-26T21:53:22.659Z,0.33
2023-03-26T21:58:40.141Z,0.30
2023-03-26T22:03:56.325Z,0.33
2023-03-26T22:09:00.637Z,0.53
2023-03-26T22:14:05.107Z,0.43
2023-03-26T22:19:08.730Z,0.40
2023-03-26T22:24:12.181Z,0.53
2023-03-26T22:29:16.941Z,0.43
2023-03-26T22:34:21.274Z,0.57
2023-03-26T22:39:24.589Z,0.67
2023-03-26T22:44:29.053Z,0.50
2023-03-26T22:49:32.306Z,0.90
2023-03-26T22:54:36.577Z,0.53
2023-03-26T22:59:41.413Z,0.50
2023-03-26T23:04:44.522Z,1.07
2023-03-26T23:09:47.811Z,1.00
2023-03-26T23:14:53.056Z,1.20
2023-03-26T23:19:56.274Z,1.13
2023-03-26T23:24:59.489Z,0.90
2023-03-26T23:30:05.319Z,0.60
2023-03-26T23:35:09.160Z,0.90
2023-03-26T23:40:13.879Z,0.90
2023-03-26T23:45:19.073Z,1.00
2023-03-26T23:50:23.540Z,1.60
2023-03-26T23:55:28.103Z,1.40
